Time;durP1;ratioP1;P1;durP2;ratioP2;P2;SDS_P1;SDS_P2;PMS_P1;PMS_P2;Temp;Humidity;BMP_temperature;BMP_pressure;BME280_temperature;BME280_humidity;BME280_pressure;Samples;Min_cycle;Max_cycle;Signal;HPM_P1;HPM_P2
2022/04/07 00:00:52;;;;;;;2.17;2.07;;;;;;;;;;5092340;28;20539;-76
2022/04/07 00:03:19;;;;;;;2.00;1.90;;;;;;;;;;5092643;28;20521;-78
2022/04/07 00:05:46;;;;;;;2.37;2.27;;;;;;;;;;5092938;28;20503;-77
2022/04/07 00:08:13;;;;;;;2.53;2.43;;;;;;;;;;5093047;28;20436;-77
2022/04/07 00:10:40;;;;;;;2.37;2.23;;;;;;;;;;5092688;28;20439;-76
2022/04/07 00:13:07;;;;;;;2.30;2.20;;;;;;;;;;5092566;28;20444;-76
2022/04/07 00:15:34;;;;;;;2.57;2.37;;;;;;;;;;5092481;28;20466;-76
2022/04/07 00:18:02;;;;;;;3.20;2.30;;;;;;;;;;5092851;28;20432;-77
2022/04/07 00:20:29;;;;;;;2.37;2.23;;;;;;;;;;5092977;28;20446;-77
2022/04/07 00:22:58;;;;;;;2.67;2.47;;;;;;;;;;5092455;28;20519;-77
2022/04/07 00:25:26;;;;;;;3.10;2.60;;;;;;;;;;5092691;28;20575;-77
2022/04/07 00:27:53;;;;;;;3.13;2.30;;;;;;;;;;5092720;28;20519;-75
2022/04/07 00:30:21;;;;;;;2.80;2.60;;;;;;;;;;5092297;28;20928;-76
2022/04/07 00:32:48;;;;;;;2.97;2.60;;;;;;;;;;5092304;28;20865;-76
2022/04/07 00:35:17;;;;;;;2.97;2.47;;;;;;;;;;5092547;28;20520;-76
2022/04/07 00:37:45;;;;;;;2.30;2.03;;;;;;;;;;5092335;28;20443;-77
2022/04/07 00:40:13;;;;;;;2.30;2.20;;;;;;;;;;5092316;28;20444;-76
2022/04/07 00:42:46;;;;;;;2.80;2.60;;;;;;;;;;5092279;28;20471;-77
2022/04/07 00:45:13;;;;;;;1.60;1.60;;;;;;;;;;5092423;28;20480;-77
2022/04/07 00:47:42;;;;;;;3.43;1.97;;;;;;;;;;5091998;28;20489;-76
2022/04/07 00:50:09;;;;;;;2.20;2.10;;;;;;;;;;5092276;28;20820;-76
2022/04/07 00:52:38;;;;;;;2.00;1.90;;;;;;;;;;5092179;28;20447;-76
2022/04/07 00:55:06;;;;;;;1.90;1.80;;;;;;;;;;5092135;28;20451;-76
2022/04/07 00:57:33;;;;;;;1.90;1.80;;;;;;;;;;5094831;28;20481;-76
2022/04/07 01:00:00;;;;;;;1.63;1.53;;;;;;;;;;5097487;28;20450;-75
2022/04/07 01:02:27;;;;;;;1.97;1.87;;;;;;;;;;5093266;28;20444;-77
2022/04/07 01:04:55;;;;;;;2.20;2.10;;;;;;;;;;5096256;28;20810;-76
2022/04/07 01:07:22;;;;;;;2.37;1.97;;;;;;;;;;5096308;28;20444;-76
2022/04/07 01:09:50;;;;;;;1.67;1.57;;;;;;;;;;5094523;28;20467;-75
2022/04/07 01:12:17;;;;;;;2.00;1.90;;;;;;;;;;5091584;28;20448;-76
2022/04/07 01:14:54;;;;;;;1.40;1.40;;;;;;;;;;5092401;28;20471;-75
2022/04/07 01:17:21;;;;;;;1.73;1.63;;;;;;;;;;5092296;28;20443;-76
2022/04/07 01:19:48;;;;;;;1.37;1.37;;;;;;;;;;5092368;28;20447;-76
2022/04/07 01:22:16;;;;;;;1.80;1.70;;;;;;;;;;5092150;28;20810;-76
2022/04/07 01:24:44;;;;;;;1.63;1.50;;;;;;;;;;5091800;28;20475;-76
2022/04/07 01:27:12;;;;;;;1.50;1.40;;;;;;;;;;5091742;28;20450;-77
2022/04/07 01:29:39;;;;;;;2.00;1.80;;;;;;;;;;5091696;28;20448;-75
2022/04/07 01:32:09;;;;;;;1.13;1.13;;;;;;;;;;5091572;28;20447;-76
2022/04/07 01:34:36;;;;;;;1.37;1.37;;;;;;;;;;5091610;28;20460;-76
2022/04/07 01:37:03;;;;;;;1.10;1.10;;;;;;;;;;5091157;28;20927;-77
2022/04/07 01:39:30;;;;;;;1.30;1.30;;;;;;;;;;5091546;28;20971;-76
2022/04/07 01:41:59;;;;;;;1.43;1.33;;;;;;;;;;5091452;28;20447;-76
2022/04/07 01:44:27;;;;;;;1.10;1.10;;;;;;;;;;5091303;28;20479;-76
2022/04/07 01:46:55;;;;;;;2.17;2.07;;;;;;;;;;5092116;28;20456;-77
2022/04/07 01:49:22;;;;;;;1.37;1.27;;;;;;;;;;5092690;28;20505;-77
2022/04/07 01:51:49;;;;;;;1.10;1.10;;;;;;;;;;5091761;28;20448;-76
2022/04/07 01:54:17;;;;;;;1.40;1.40;;;;;;;;;;5093633;28;20559;-76
2022/04/07 01:56:45;;;;;;;1.53;1.43;;;;;;;;;;5091622;28;20950;-76
2022/04/07 01:59:15;;;;;;;1.70;1.60;;;;;;;;;;5091250;28;20489;-76
2022/04/07 02:01:42;;;;;;;1.30;1.30;;;;;;;;;;5091510;28;20501;-77
2022/04/07 02:04:09;;;;;;;1.20;1.20;;;;;;;;;;5090673;28;20467;-76
2022/04/07 02:06:36;;;;;;;1.27;1.27;;;;;;;;;;5076798;28;20537;-77
2022/04/07 02:09:03;;;;;;;1.50;1.40;;;;;;;;;;5071260;28;20500;-76
2022/04/07 02:11:31;;;;;;;1.43;1.33;;;;;;;;;;5071331;28;20482;-77
2022/04/07 02:13:59;;;;;;;1.57;1.47;;;;;;;;;;5070740;28;20523;-77
2022/04/07 02:16:30;;;;;;;1.70;1.60;;;;;;;;;;5070921;28;20856;-76
2022/04/07 02:18:57;;;;;;;1.67;1.57;;;;;;;;;;5070975;28;20445;-76
2022/04/07 02:21:24;;;;;;;1.97;1.90;;;;;;;;;;5070854;28;20519;-75
2022/04/07 02:23:52;;;;;;;1.93;1.30;;;;;;;;;;5070293;28;20479;-76
2022/04/07 02:26:19;;;;;;;1.70;1.67;;;;;;;;;;5074788;28;20536;-77
2022/04/07 02:28:46;;;;;;;2.03;1.70;;;;;;;;;;5074858;28;20444;-76
2022/04/07 02:31:13;;;;;;;2.17;2.07;;;;;;;;;;5074482;28;20444;-75
2022/04/07 02:33:42;;;;;;;1.50;1.50;;;;;;;;;;5074543;28;20441;-76
2022/04/07 02:36:09;;;;;;;1.90;1.80;;;;;;;;;;5074822;28;20453;-78
2022/04/07 02:38:37;;;;;;;1.40;1.40;;;;;;;;;;5074843;28;20448;-76
2022/04/07 02:41:04;;;;;;;1.60;1.60;;;;;;;;;;5074751;28;20436;-76
2022/04/07 02:43:31;;;;;;;1.50;1.50;;;;;;;;;;5074202;28;20884;-78
2022/04/07 02:45:58;;;;;;;1.80;1.70;;;;;;;;;;5074400;28;20831;-76
2022/04/07 02:48:25;;;;;;;2.00;1.90;;;;;;;;;;5074556;28;20451;-78
2022/04/07 02:50:54;;;;;;;1.60;1.50;;;;;;;;;;5074892;28;20444;-76
2022/04/07 02:53:21;;;;;;;1.70;1.60;;;;;;;;;;5074760;28;20517;-76
2022/04/07 02:55:48;;;;;;;1.90;1.80;;;;;;;;;;5074852;28;20456;-76
2022/04/07 02:58:15;;;;;;;1.90;1.80;;;;;;;;;;5074131;28;20460;-77
2022/04/07 03:00:42;;;;;;;1.60;1.50;;;;;;;;;;5074240;28;20441;-77
2022/04/07 03:03:09;;;;;;;1.30;1.30;;;;;;;;;;5074435;28;20451;-78
2022/04/07 03:05:36;;;;;;;1.50;1.40;;;;;;;;;;5080406;28;20906;-76
2022/04/07 03:08:05;;;;;;;1.67;1.57;;;;;;;;;;5094175;28;20448;-77
2022/04/07 03:10:32;;;;;;;1.03;1.03;;;;;;;;;;5094172;28;20977;-77
2022/04/07 03:12:59;;;;;;;1.50;1.40;;;;;;;;;;5094257;28;20458;-76
2022/04/07 03:15:26;;;;;;;1.30;1.30;;;;;;;;;;5094170;28;20466;-77
2022/04/07 03:17:53;;;;;;;1.17;1.07;;;;;;;;;;5094328;28;20449;-77
2022/04/07 03:20:20;;;;;;;1.70;1.03;;;;;;;;;;5094245;28;20532;-76
2022/04/07 03:22:47;;;;;;;1.10;1.10;;;;;;;;;;5093852;28;20930;-77
2022/04/07 03:25:16;;;;;;;1.37;1.37;;;;;;;;;;5093425;28;20548;-76
2022/04/07 03:27:43;;;;;;;1.20;1.20;;;;;;;;;;5094238;28;20440;-76
2022/04/07 03:30:10;;;;;;;1.40;1.30;;;;;;;;;;5093969;28;20461;-78
2022/04/07 03:32:37;;;;;;;1.67;1.57;;;;;;;;;;5094384;28;20485;-76
2022/04/07 03:35:05;;;;;;;1.07;1.07;;;;;;;;;;5093171;28;20459;-76
2022/04/07 03:37:32;;;;;;;1.20;1.10;;;;;;;;;;5093888;28;20532;-77
2022/04/07 03:39:59;;;;;;;1.13;1.13;;;;;;;;;;5094212;28;20456;-77
2022/04/07 03:42:27;;;;;;;1.40;1.40;;;;;;;;;;5093529;28;20439;-76
2022/04/07 03:44:54;;;;;;;1.00;1.00;;;;;;;;;;5093701;28;20467;-76
2022/04/07 03:47:21;;;;;;;1.37;1.37;;;;;;;;;;5094899;28;20446;-77
2022/04/07 03:49:49;;;;;;;1.53;1.23;;;;;;;;;;5097372;28;20462;-76
2022/04/07 03:52:16;;;;;;;1.07;1.07;;;;;;;;;;5097169;28;20848;-76
2022/04/07 03:54:43;;;;;;;2.07;1.43;;;;;;;;;;5096829;28;20470;-76
2022/04/07 03:57:10;;;;;;;1.17;1.17;;;;;;;;;;5096974;28;20508;-76
2022/04/07 03:59:39;;;;;;;1.40;1.30;;;;;;;;;;5093734;28;20443;-76
2022/04/07 04:02:07;;;;;;;1.37;1.27;;;;;;;;;;5093981;28;20542;-76
2022/04/07 04:04:34;;;;;;;1.53;1.43;;;;;;;;;;5092443;28;20475;-77
2022/04/07 04:07:01;;;;;;;1.53;1.43;;;;;;;;;;5092944;28;20486;-78
2022/04/07 04:09:28;;;;;;;1.10;1.10;;;;;;;;;;5093341;28;20895;-76
2022/04/07 04:11:55;;;;;;;1.60;1.50;;;;;;;;;;5093385;28;20451;-77
2022/04/07 04:14:22;;;;;;;1.23;1.23;;;;;;;;;;5092012;28;20475;-76
2022/04/07 04:16:50;;;;;;;1.43;1.43;;;;;;;;;;5093138;28;20513;-76
2022/04/07 04:19:17;;;;;;;1.80;1.27;;;;;;;;;;5096314;28;20486;-78
2022/04/07 04:21:44;;;;;;;1.30;1.30;;;;;;;;;;5098462;28;20493;-77
2022/04/07 04:24:11;;;;;;;2.43;1.10;;;;;;;;;;5096327;28;20540;-77
2022/04/07 04:26:38;;;;;;;1.50;1.40;;;;;;;;;;5095469;28;20501;-76
2022/04/07 04:29:05;;;;;;;1.10;1.10;;;;;;;;;;5099279;28;20451;-76
2022/04/07 04:31:32;;;;;;;1.83;1.70;;;;;;;;;;5097835;28;20485;-78
2022/04/07 04:34:01;;;;;;;1.83;1.60;;;;;;;;;;5092538;28;20466;-77
2022/04/07 04:36:29;;;;;;;1.20;1.20;;;;;;;;;;5093062;28;20536;-75
2022/04/07 04:38:56;;;;;;;1.30;1.30;;;;;;;;;;5092847;28;20526;-76
2022/04/07 04:41:23;;;;;;;1.63;1.20;;;;;;;;;;5093022;28;20439;-76
2022/04/07 04:43:50;;;;;;;1.73;1.50;;;;;;;;;;5092570;28;20456;-77
2022/04/07 04:46:17;;;;;;;1.43;1.33;;;;;;;;;;5091810;28;20471;-76
2022/04/07 04:48:44;;;;;;;1.20;1.20;;;;;;;;;;5092836;28;20551;-77
2022/04/07 04:51:13;;;;;;;1.47;1.27;;;;;;;;;;5097663;28;20448;-76
2022/04/07 04:53:40;;;;;;;1.20;1.20;;;;;;;;;;5096136;28;20490;-76
2022/04/07 04:56:07;;;;;;;1.20;1.20;;;;;;;;;;5097165;28;20853;-76
2022/04/07 04:58:34;;;;;;;1.70;1.43;;;;;;;;;;5097434;28;20438;-77
2022/04/07 05:01:01;;;;;;;1.97;1.83;;;;;;;;;;5095405;28;20439;-76
2022/04/07 05:03:28;;;;;;;1.53;1.30;;;;;;;;;;5093615;28;20957;-77
2022/04/07 05:05:55;;;;;;;2.20;1.40;;;;;;;;;;5092387;28;20490;-76
2022/04/07 05:08:24;;;;;;;1.20;1.17;;;;;;;;;;5092168;28;20501;-76
2022/04/07 05:10:51;;;;;;;1.40;1.40;;;;;;;;;;5092889;28;20443;-77
2022/04/07 05:13:18;;;;;;;1.10;1.10;;;;;;;;;;5091631;28;20512;-76
2022/04/07 05:15:45;;;;;;;1.40;1.40;;;;;;;;;;5092266;28;20463;-77
2022/04/07 05:18:12;;;;;;;1.23;1.23;;;;;;;;;;5092040;28;20842;-76
2022/04/07 05:20:39;;;;;;;1.37;1.10;;;;;;;;;;5092369;28;20454;-77
2022/04/07 05:23:06;;;;;;;1.43;1.43;;;;;;;;;;5091886;28;20451;-77
2022/04/07 05:25:34;;;;;;;1.30;1.20;;;;;;;;;;5092317;28;20472;-77
2022/04/07 05:28:01;;;;;;;1.40;1.30;;;;;;;;;;5091560;28;20452;-77
2022/04/07 05:30:28;;;;;;;1.73;1.10;;;;;;;;;;5091804;28;20508;-77
2022/04/07 05:32:55;;;;;;;0.80;0.80;;;;;;;;;;5092073;28;20443;-76
2022/04/07 05:35:26;;;;;;;1.47;1.37;;;;;;;;;;5092709;28;20470;-76
2022/04/07 05:37:59;;;;;;;1.30;1.30;;;;;;;;;;5092354;28;20443;-75
2022/04/07 05:40:26;;;;;;;1.10;1.10;;;;;;;;;;5092329;28;20447;-77
2022/04/07 05:42:54;;;;;;;1.13;1.13;;;;;;;;;;5095151;28;20432;-78
2022/04/07 05:45:22;;;;;;;1.10;1.00;;;;;;;;;;5091699;28;21041;-78
2022/04/07 05:47:49;;;;;;;4.60;4.20;;;;;;;;;;5091801;28;20466;-77
2022/04/07 05:50:17;;;;;;;2.33;2.20;;;;;;;;;;5091693;28;20440;-77
2022/04/07 05:52:44;;;;;;;1.13;1.13;;;;;;;;;;5091425;28;20913;-77
2022/04/07 05:55:11;;;;;;;0.90;0.90;;;;;;;;;;5091599;28;20889;-78
2022/04/07 05:57:38;;;;;;;1.30;1.20;;;;;;;;;;5102975;28;20448;-77
2022/04/07 06:00:09;;;;;;;1.30;1.20;;;;;;;;;;5102071;28;20435;-77
2022/04/07 06:02:37;;;;;;;0.70;0.70;;;;;;;;;;5099709;28;20801;-77
2022/04/07 06:05:04;;;;;;;0.90;0.90;;;;;;;;;;5091927;28;20460;-77
2022/04/07 06:07:32;;;;;;;1.10;1.00;;;;;;;;;;5091730;28;21018;-76
2022/04/07 06:09:59;;;;;;;1.30;1.20;;;;;;;;;;5092038;28;20447;-77
2022/04/07 06:12:26;;;;;;;1.30;0.70;;;;;;;;;;5092188;28;20448;-78
2022/04/07 06:14:53;;;;;;;0.73;0.73;;;;;;;;;;5092007;28;20459;-77
2022/04/07 06:17:21;;;;;;;1.20;0.87;;;;;;;;;;5091606;28;20931;-76
2022/04/07 06:19:48;;;;;;;0.80;0.80;;;;;;;;;;5092123;28;20477;-76
2022/04/07 06:22:15;;;;;;;0.80;0.80;;;;;;;;;;5091163;28;20496;-78
2022/04/07 06:24:42;;;;;;;1.87;0.73;;;;;;;;;;5091727;28;20852;-76
2022/04/07 06:27:09;;;;;;;0.90;0.90;;;;;;;;;;5091431;28;20475;-76
2022/04/07 06:29:36;;;;;;;0.80;0.80;;;;;;;;;;5091547;28;20935;-76
2022/04/07 06:32:03;;;;;;;0.80;0.80;;;;;;;;;;5091751;28;20440;-77
2022/04/07 06:34:31;;;;;;;0.80;0.70;;;;;;;;;;5090854;28;20858;-76
2022/04/07 06:37:00;;;;;;;1.33;0.90;;;;;;;;;;5091763;28;20447;-77
2022/04/07 06:39:45;;;;;;;1.03;0.70;;;;;;;;;;5097099;28;20861;-76
2022/04/07 06:42:21;;;;;;;3.80;0.80;;;;;;;;;;5096215;28;20444;-79
2022/04/07 06:44:51;;;;;;;0.90;0.90;;;;;;;;;;5093954;28;20487;-76
2022/04/07 06:47:18;;;;;;;0.83;0.83;;;;;;;;;;5094246;28;20470;-77
2022/04/07 06:49:49;;;;;;;2.80;0.83;;;;;;;;;;5094282;28;20451;-76
2022/04/07 06:52:16;;;;;;;1.23;1.13;;;;;;;;;;5090744;28;20954;-77
2022/04/07 06:54:49;;;;;;;1.67;0.70;;;;;;;;;;5092401;28;20513;-77
2022/04/07 06:57:16;;;;;;;1.07;1.07;;;;;;;;;;5094634;28;20428;-77
2022/04/07 06:59:43;;;;;;;0.70;0.70;;;;;;;;;;5091304;28;20489;-76
2022/04/07 07:02:10;;;;;;;0.70;0.70;;;;;;;;;;5091848;28;20492;-76
2022/04/07 07:04:37;;;;;;;0.77;0.70;;;;;;;;;;5090693;28;20520;-77
2022/04/07 07:07:06;;;;;;;0.90;0.70;;;;;;;;;;5090826;28;20885;-77
2022/04/07 07:09:33;;;;;;;1.27;0.70;;;;;;;;;;5084541;28;20531;-78
2022/04/07 07:12:00;;;;;;;3.87;0.73;;;;;;;;;;5094001;28;20448;-76
2022/04/07 07:14:27;;;;;;;0.70;0.70;;;;;;;;;;5085399;28;20549;-76
2022/04/07 07:16:54;;;;;;;0.60;0.60;;;;;;;;;;5074022;28;20440;-78
2022/04/07 07:19:26;;;;;;;0.80;0.80;;;;;;;;;;5076206;28;20458;-77
2022/04/07 07:21:53;;;;;;;0.90;0.90;;;;;;;;;;5083525;28;21191;-76
2022/04/07 07:24:21;;;;;;;1.87;1.20;;;;;;;;;;5094823;28;20470;-76
2022/04/07 07:26:48;;;;;;;0.67;0.67;;;;;;;;;;5095160;28;20521;-77
2022/04/07 07:29:16;;;;;;;2.43;0.80;;;;;;;;;;5094375;28;20971;-77
2022/04/07 07:31:43;;;;;;;0.93;0.93;;;;;;;;;;5094656;28;20476;-77
2022/04/07 07:34:10;;;;;;;0.60;0.60;;;;;;;;;;5085874;28;21010;-77
2022/04/07 07:36:37;;;;;;;0.80;0.80;;;;;;;;;;5092289;28;20485;-75
2022/04/07 07:39:04;;;;;;;1.53;0.80;;;;;;;;;;5094006;28;20440;-78
2022/04/07 07:41:33;;;;;;;1.47;0.90;;;;;;;;;;5094360;28;20440;-77
2022/04/07 07:44:00;;;;;;;2.00;0.60;;;;;;;;;;5094236;28;20471;-78
2022/04/07 07:46:29;;;;;;;0.70;0.70;;;;;;;;;;5090349;28;20475;-78
2022/04/07 07:48:56;;;;;;;5.23;1.27;;;;;;;;;;5094504;28;20497;-78
2022/04/07 07:51:23;;;;;;;1.17;0.90;;;;;;;;;;5094377;28;20466;-76
2022/04/07 07:53:50;;;;;;;1.10;1.00;;;;;;;;;;5090163;28;20471;-76
2022/04/07 07:56:17;;;;;;;0.70;0.70;;;;;;;;;;5093964;28;20493;-77
2022/04/07 07:58:45;;;;;;;0.80;0.80;;;;;;;;;;5093677;28;20443;-77
2022/04/07 08:01:12;;;;;;;0.90;0.90;;;;;;;;;;5094136;28;20444;-77
2022/04/07 08:03:39;;;;;;;0.80;0.60;;;;;;;;;;5093704;28;20444;-76
2022/04/07 08:06:06;;;;;;;0.87;0.87;;;;;;;;;;5093864;28;20439;-76
2022/04/07 08:08:33;;;;;;;0.70;0.70;;;;;;;;;;5093944;28;20443;-76
2022/04/07 08:11:00;;;;;;;0.80;0.80;;;;;;;;;;5094107;28;20442;-76
2022/04/07 08:13:27;;;;;;;1.07;0.97;;;;;;;;;;5093049;28;20962;-77
2022/04/07 08:15:55;;;;;;;2.23;1.20;;;;;;;;;;5094085;28;20436;-76
2022/04/07 08:18:23;;;;;;;0.80;0.80;;;;;;;;;;5093766;28;20432;-78
2022/04/07 08:20:50;;;;;;;1.00;0.90;;;;;;;;;;5094679;28;20522;-77
2022/04/07 08:23:17;;;;;;;0.93;0.83;;;;;;;;;;5094127;28;20443;-78
2022/04/07 08:25:44;;;;;;;1.17;0.77;;;;;;;;;;5096408;28;20524;-77
2022/04/07 08:28:11;;;;;;;1.77;0.90;;;;;;;;;;5093315;28;20853;-76
2022/04/07 08:30:38;;;;;;;1.00;0.90;;;;;;;;;;5093468;28;20455;-77
2022/04/07 08:33:07;;;;;;;1.10;1.10;;;;;;;;;;5093034;28;20444;-77
2022/04/07 08:35:34;;;;;;;1.03;0.70;;;;;;;;;;5093323;28;21002;-77
2022/04/07 08:38:01;;;;;;;0.87;0.80;;;;;;;;;;5093109;28;20447;-77
2022/04/07 08:40:29;;;;;;;2.00;1.07;;;;;;;;;;5091878;28;20518;-77
2022/04/07 08:42:57;;;;;;;0.73;0.70;;;;;;;;;;5092697;28;20556;-76
2022/04/07 08:45:25;;;;;;;0.70;0.70;;;;;;;;;;5092844;28;20539;-77
2022/04/07 08:47:53;;;;;;;0.80;0.80;;;;;;;;;;5092309;28;20534;-77
2022/04/07 08:50:23;;;;;;;2.00;0.80;;;;;;;;;;5092451;28;20444;-77
2022/04/07 08:52:50;;;;;;;0.90;0.80;;;;;;;;;;5092549;28;20578;-76
2022/04/07 08:55:17;;;;;;;0.97;0.97;;;;;;;;;;5092533;28;20456;-76
2022/04/07 08:57:44;;;;;;;0.60;0.60;;;;;;;;;;5092731;28;20485;-77
2022/04/07 09:00:12;;;;;;;1.17;0.70;;;;;;;;;;5092690;28;20446;-77
2022/04/07 09:02:39;;;;;;;0.70;0.70;;;;;;;;;;5092861;28;20467;-76
2022/04/07 09:05:10;;;;;;;0.70;0.70;;;;;;;;;;5093390;28;20471;-77
2022/04/07 09:07:39;;;;;;;1.13;0.50;;;;;;;;;;5092611;28;20475;-76
2022/04/07 09:10:07;;;;;;;0.53;0.53;;;;;;;;;;5092202;28;20547;-77
2022/04/07 09:12:38;;;;;;;0.70;0.70;;;;;;;;;;5092003;28;20447;-76
2022/04/07 09:15:05;;;;;;;1.13;0.70;;;;;;;;;;5092327;28;20652;-77
2022/04/07 09:17:33;;;;;;;1.30;1.13;;;;;;;;;;5095651;28;20473;-77
2022/04/07 09:20:00;;;;;;;0.67;0.67;;;;;;;;;;5110416;28;20466;-78
2022/04/07 09:22:33;;;;;;;0.70;0.60;;;;;;;;;;5110166;28;20495;-78
2022/04/07 09:25:05;;;;;;;1.27;0.50;;;;;;;;;;5111299;28;20456;-76
2022/04/07 09:27:32;;;;;;;1.80;0.47;;;;;;;;;;5110911;28;20486;-76
2022/04/07 09:30:00;;;;;;;0.63;0.50;;;;;;;;;;5111776;28;20467;-75
2022/04/07 09:32:28;;;;;;;0.50;0.50;;;;;;;;;;5110936;28;20273;-76
2022/04/07 09:34:55;;;;;;;0.60;0.60;;;;;;;;;;5105262;28;20467;-76
2022/04/07 09:37:23;;;;;;;1.57;1.47;;;;;;;;;;5112322;28;20436;-77
2022/04/07 09:39:50;;;;;;;0.93;0.70;;;;;;;;;;5114151;28;20492;-78
2022/04/07 09:42:23;;;;;;;1.37;0.77;;;;;;;;;;5101786;28;20505;-77
2022/04/07 09:44:52;;;;;;;0.70;0.70;;;;;;;;;;5092511;28;20897;-77
2022/04/07 09:47:19;;;;;;;0.60;0.60;;;;;;;;;;5092447;28;20487;-77
2022/04/07 09:49:46;;;;;;;1.38;0.70;;;;;;;;;;5098674;28;20942;-77
2022/04/07 09:52:13;;;;;;;0.70;0.70;;;;;;;;;;5103639;28;20194;-78
2022/04/07 09:54:42;;;;;;;3.80;0.87;;;;;;;;;;5099510;28;20475;-77
2022/04/07 09:57:10;;;;;;;1.00;0.50;;;;;;;;;;5099516;28;20515;-77
2022/04/07 09:59:41;;;;;;;0.87;0.67;;;;;;;;;;5093098;28;20435;-78
2022/04/07 10:02:08;;;;;;;3.07;0.80;;;;;;;;;;5092643;28;20439;-79
2022/04/07 10:04:35;;;;;;;1.50;1.07;;;;;;;;;;5091483;28;20463;-78
2022/04/07 10:07:04;;;;;;;0.90;0.90;;;;;;;;;;5073590;28;20529;-77
2022/04/07 10:09:31;;;;;;;0.90;0.73;;;;;;;;;;5070968;28;20811;-77
2022/04/07 10:11:59;;;;;;;0.67;0.63;;;;;;;;;;5071559;28;20866;-78
2022/04/07 10:14:29;;;;;;;1.27;1.20;;;;;;;;;;5070921;28;20579;-79
2022/04/07 10:16:58;;;;;;;1.63;0.90;;;;;;;;;;5071222;28;20970;-78
2022/04/07 10:19:29;;;;;;;0.70;0.60;;;;;;;;;;5071019;28;20448;-78
2022/04/07 10:22:02;;;;;;;0.67;0.67;;;;;;;;;;5071271;28;20448;-77
2022/04/07 10:24:31;;;;;;;2.23;0.50;;;;;;;;;;5070833;28;20899;-79
2022/04/07 10:27:00;;;;;;;0.70;0.70;;;;;;;;;;5071004;28;20444;-77
2022/04/07 10:29:27;;;;;;;0.60;0.60;;;;;;;;;;5071235;28;20451;-77
2022/04/07 10:32:13;;;;;;;3.70;0.90;;;;;;;;;;5072240;28;20441;-78
2022/04/07 10:34:53;;;;;;;0.73;0.60;;;;;;;;;;5074672;28;20468;-78
2022/04/07 10:37:29;;;;;;;1.43;0.60;;;;;;;;;;5074420;28;20459;-77
2022/04/07 10:39:56;;;;;;;3.13;0.70;;;;;;;;;;5074999;28;20440;-78
2022/04/07 10:42:55;;;;;;;0.40;0.40;;;;;;;;;;5073280;28;20486;-78
2022/04/07 10:45:33;;;;;;;0.70;0.70;;;;;;;;;;5071570;28;20461;-77
2022/04/07 10:48:19;;;;;;;0.80;0.60;;;;;;;;;;5074867;28;20496;-78
2022/04/07 10:50:49;;;;;;;0.67;0.50;;;;;;;;;;5074770;28;20456;-78
2022/04/07 10:53:20;;;;;;;0.83;0.67;;;;;;;;;;5074347;28;20939;-78
2022/04/07 10:55:57;;;;;;;5.47;0.70;;;;;;;;;;5074609;28;20984;-79
2022/04/07 10:58:37;;;;;;;2.73;0.80;;;;;;;;;;5074613;28;20444;-79
2022/04/07 11:01:06;;;;;;;0.70;0.70;;;;;;;;;;5074829;28;20541;-78
2022/04/07 11:03:34;;;;;;;0.63;0.50;;;;;;;;;;5074247;28;20472;-78
2022/04/07 11:06:02;;;;;;;0.63;0.60;;;;;;;;;;5083882;28;20447;-78
2022/04/07 11:08:30;;;;;;;1.33;1.10;;;;;;;;;;5094842;28;20484;-78
2022/04/07 11:10:57;;;;;;;0.70;0.70;;;;;;;;;;5094848;28;20563;-77
2022/04/07 11:13:39;;;;;;;0.40;0.40;;;;;;;;;;5094307;28;20462;-78
2022/04/07 11:16:12;;;;;;;1.37;0.57;;;;;;;;;;5094044;28;20481;-77
2022/04/07 11:18:47;;;;;;;0.60;0.60;;;;;;;;;;5094841;28;20465;-78
2022/04/07 11:21:14;;;;;;;2.00;0.70;;;;;;;;;;5094724;28;20439;-78
2022/04/07 11:23:45;;;;;;;0.60;0.60;;;;;;;;;;5094322;28;20497;-77
2022/04/07 11:26:20;;;;;;;0.50;0.50;;;;;;;;;;5095307;28;20439;-77
2022/04/07 11:29:08;;;;;;;0.60;0.60;;;;;;;;;;5095637;28;20471;-77
2022/04/07 11:31:48;;;;;;;1.17;0.50;;;;;;;;;;5090778;28;20457;-77
2022/04/07 11:34:33;;;;;;;0.70;0.40;;;;;;;;;;5094528;28;20983;-78
2022/04/07 11:37:01;;;;;;;5.43;0.90;;;;;;;;;;5094313;28;20443;-77
2022/04/07 11:39:29;;;;;;;0.30;0.30;;;;;;;;;;5094578;28;20436;-78
2022/04/07 11:41:59;;;;;;;3.07;0.60;;;;;;;;;;5094293;28;20446;-77
2022/04/07 11:44:28;;;;;;;0.73;0.47;;;;;;;;;;5093662;28;20474;-78
2022/04/07 11:46:56;;;;;;;1.93;0.50;;;;;;;;;;5093758;28;20553;-77
2022/04/07 11:49:24;;;;;;;1.23;0.73;;;;;;;;;;5093564;28;20476;-78
2022/04/07 11:51:51;;;;;;;0.60;0.60;;;;;;;;;;5093829;28;20447;-78
2022/04/07 11:54:18;;;;;;;1.80;0.50;;;;;;;;;;5093512;28;20516;-77
2022/04/07 11:56:45;;;;;;;0.40;0.40;;;;;;;;;;5093230;28;20488;-79
2022/04/07 11:59:13;;;;;;;2.83;0.70;;;;;;;;;;5093606;28;20496;-78
2022/04/07 12:01:41;;;;;;;0.70;0.50;;;;;;;;;;5093706;28;20443;-77
2022/04/07 12:04:10;;;;;;;1.27;0.67;;;;;;;;;;5093121;28;20471;-79
2022/04/07 12:06:40;;;;;;;0.67;0.60;;;;;;;;;;5079724;28;20456;-77
2022/04/07 12:09:07;;;;;;;1.17;0.60;;;;;;;;;;5073720;28;20769;-79
2022/04/07 12:11:35;;;;;;;1.13;0.40;;;;;;;;;;5073574;28;20495;-78
2022/04/07 12:14:05;;;;;;;0.50;0.50;;;;;;;;;;5073017;28;20468;-78
2022/04/07 12:16:32;;;;;;;0.60;0.40;;;;;;;;;;5075249;28;20490;-78
2022/04/07 12:19:00;;;;;;;0.40;0.40;;;;;;;;;;5073483;28;20455;-77
2022/04/07 12:21:29;;;;;;;0.53;0.53;;;;;;;;;;5073064;28;20509;-78
2022/04/07 12:24:11;;;;;;;0.40;0.40;;;;;;;;;;5072282;28;20492;-77
2022/04/07 12:26:42;;;;;;;0.57;0.57;;;;;;;;;;5072781;28;20960;-79
2022/04/07 12:29:09;;;;;;;0.50;0.50;;;;;;;;;;5072606;28;20492;-78
2022/04/07 12:31:36;;;;;;;0.60;0.50;;;;;;;;;;5073089;28;20495;-79
2022/04/07 12:34:11;;;;;;;0.50;0.50;;;;;;;;;;5072770;28;20461;-78
2022/04/07 12:36:40;;;;;;;0.67;0.67;;;;;;;;;;5072849;28;20487;-79
2022/04/07 12:39:08;;;;;;;1.13;0.80;;;;;;;;;;5072926;28;20928;-79
2022/04/07 12:41:43;;;;;;;0.50;0.50;;;;;;;;;;5072518;28;20453;-78
2022/04/07 12:44:10;;;;;;;2.00;0.57;;;;;;;;;;5072392;28;20464;-77
2022/04/07 12:46:44;;;;;;;0.47;0.47;;;;;;;;;;5072843;28;20725;-78
2022/04/07 12:49:11;;;;;;;0.50;0.50;;;;;;;;;;5072435;28;20534;-78
2022/04/07 12:51:40;;;;;;;0.67;0.40;;;;;;;;;;5072697;28;20436;-78
2022/04/07 12:54:11;;;;;;;1.23;0.40;;;;;;;;;;5071639;28;20491;-77
2022/04/07 12:56:39;;;;;;;0.60;0.60;;;;;;;;;;5072145;28;20494;-78
2022/04/07 12:59:08;;;;;;;0.70;0.70;;;;;;;;;;5072110;28;20490;-77
2022/04/07 13:01:35;;;;;;;1.27;0.47;;;;;;;;;;5072278;28;21130;-77
2022/04/07 13:04:04;;;;;;;1.13;0.50;;;;;;;;;;5072100;28;21103;-78
2022/04/07 13:06:31;;;;;;;0.50;0.50;;;;;;;;;;5084963;28;20478;-77
2022/04/07 13:09:00;;;;;;;0.80;0.50;;;;;;;;;;5091985;28;20471;-78
2022/04/07 13:11:35;;;;;;;0.63;0.60;;;;;;;;;;5092314;28;20451;-77
2022/04/07 13:14:02;;;;;;;1.23;0.50;;;;;;;;;;5092510;28;20472;-78
2022/04/07 13:16:29;;;;;;;0.93;0.70;;;;;;;;;;5102118;28;20446;-77
2022/04/07 13:18:56;;;;;;;0.90;0.70;;;;;;;;;;5096799;28;20440;-77
2022/04/07 13:21:23;;;;;;;0.60;0.40;;;;;;;;;;5092773;28;20443;-77
2022/04/07 13:23:50;;;;;;;0.63;0.63;;;;;;;;;;5092156;28;20460;-78
2022/04/07 13:26:19;;;;;;;0.80;0.43;;;;;;;;;;5092517;28;20500;-78
2022/04/07 13:28:48;;;;;;;1.07;0.70;;;;;;;;;;5092223;28;20482;-77
2022/04/07 13:31:15;;;;;;;0.77;0.60;;;;;;;;;;5092679;28;20850;-77
2022/04/07 13:33:42;;;;;;;2.17;0.80;;;;;;;;;;5091751;28;20876;-79
2022/04/07 13:36:09;;;;;;;0.50;0.50;;;;;;;;;;5092312;28;20443;-77
2022/04/07 13:38:36;;;;;;;2.23;0.90;;;;;;;;;;5092743;28;20435;-78
2022/04/07 13:41:04;;;;;;;0.80;0.70;;;;;;;;;;5091839;28;20535;-78
2022/04/07 13:43:32;;;;;;;1.10;0.50;;;;;;;;;;5091308;28;21034;-78
2022/04/07 13:45:59;;;;;;;0.60;0.53;;;;;;;;;;5091271;28;20501;-77
2022/04/07 13:48:27;;;;;;;1.03;0.57;;;;;;;;;;5091478;28;20480;-78
2022/04/07 13:50:54;;;;;;;1.27;0.50;;;;;;;;;;5091634;28;20479;-78
2022/04/07 13:53:21;;;;;;;0.60;0.60;;;;;;;;;;5092631;28;20500;-78
2022/04/07 13:55:48;;;;;;;0.83;0.57;;;;;;;;;;5091429;28;20470;-77
2022/04/07 13:58:15;;;;;;;0.40;0.40;;;;;;;;;;5091340;28;20487;-76
2022/04/07 14:00:44;;;;;;;0.53;0.50;;;;;;;;;;5091195;28;20807;-77
2022/04/07 14:03:12;;;;;;;1.50;0.97;;;;;;;;;;5091391;28;20439;-77
2022/04/07 14:05:39;;;;;;;0.57;0.57;;;;;;;;;;5091491;28;20525;-77
2022/04/07 14:08:06;;;;;;;1.00;0.90;;;;;;;;;;5091778;28;20455;-77
2022/04/07 14:10:35;;;;;;;2.97;0.70;;;;;;;;;;5091608;28;20799;-77
2022/04/07 14:13:02;;;;;;;0.60;0.60;;;;;;;;;;5090724;28;20455;-79
2022/04/07 14:15:29;;;;;;;0.60;0.60;;;;;;;;;;5091099;28;20540;-78
2022/04/07 14:17:58;;;;;;;1.33;0.60;;;;;;;;;;5091136;28;20956;-79
2022/04/07 14:20:26;;;;;;;0.50;0.50;;;;;;;;;;5095838;28;20875;-78
2022/04/07 14:22:53;;;;;;;1.23;0.70;;;;;;;;;;5098071;28;20459;-76
2022/04/07 14:25:20;;;;;;;0.70;0.70;;;;;;;;;;5098246;28;20487;-78
2022/04/07 14:27:47;;;;;;;0.57;0.50;;;;;;;;;;5097923;28;20447;-76
2022/04/07 14:30:14;;;;;;;0.50;0.50;;;;;;;;;;5098501;28;20560;-77
2022/04/07 14:32:45;;;;;;;0.50;0.50;;;;;;;;;;5097801;28;20427;-77
2022/04/07 14:35:16;;;;;;;0.70;0.70;;;;;;;;;;5098190;28;20471;-78
2022/04/07 14:37:43;;;;;;;2.00;0.57;;;;;;;;;;5098525;28;20442;-78
2022/04/07 14:40:11;;;;;;;1.70;0.50;;;;;;;;;;5098371;28;20436;-78
2022/04/07 14:42:38;;;;;;;0.60;0.50;;;;;;;;;;5099658;28;20447;-77
2022/04/07 14:45:05;;;;;;;0.90;0.80;;;;;;;;;;5098887;28;20776;-78
2022/04/07 14:47:32;;;;;;;0.50;0.50;;;;;;;;;;5097837;28;20443;-78
2022/04/07 14:49:59;;;;;;;0.60;0.60;;;;;;;;;;5098354;28;20484;-79